Time;durP1;ratioP1;P1;durP2;ratioP2;P2;SDS_P1;SDS_P2;PMS_P1;PMS_P2;Temp;Humidity;BMP_temperature;BMP_pressure;BME280_temperature;BME280_humidity;BME280_pressure;Samples;Min_cycle;Max_cycle;Signal;HPM_P1;HPM_P2
2022/04/18 00:00:11;;;;;;;5.50;2.90;;;;;;;1.48;69.48;97709.22;5059519;28;20484;-65
2022/04/18 00:02:37;;;;;;;4.28;2.30;;;;;;;1.62;68.56;97710.22;5068321;28;20044;-65
2022/04/18 00:05:05;;;;;;;4.38;2.47;;;;;;;1.67;68.21;97702.47;5062380;28;20679;-65
2022/04/18 00:07:31;;;;;;;5.25;2.83;;;;;;;1.64;68.31;97699.34;5067360;28;20098;-65
2022/04/18 00:09:58;;;;;;;4.40;2.53;;;;;;;1.56;68.74;97698.44;5064932;28;20109;-65
2022/04/18 00:12:25;;;;;;;5.20;2.42;;;;;;;1.65;68.19;97696.50;5047281;28;20424;-65
2022/04/18 00:14:51;;;;;;;8.45;2.65;;;;;;;1.42;69.15;97692.13;5057237;28;20045;-65
2022/04/18 00:17:18;;;;;;;5.72;2.50;;;;;;;1.03;70.32;97695.84;5052381;28;20105;-65
2022/04/18 00:19:44;;;;;;;5.55;2.20;;;;;;;1.03;70.92;97690.53;5049908;28;20048;-65
2022/04/18 00:22:11;;;;;;;4.65;2.40;;;;;;;0.90;71.21;97693.84;5047414;28;20052;-65
2022/04/18 00:24:38;;;;;;;5.00;2.58;;;;;;;0.80;71.39;97694.09;5056695;28;20041;-65
2022/04/18 00:27:04;;;;;;;6.30;3.05;;;;;;;0.82;71.32;97694.75;5074285;28;20113;-65
2022/04/18 00:29:31;;;;;;;10.02;2.72;;;;;;;0.87;71.74;97687.03;5068351;28;20044;-65
2022/04/18 00:31:58;;;;;;;7.72;3.10;;;;;;;1.01;70.82;97688.06;5052144;28;20123;-65
2022/04/18 00:34:26;;;;;;;6.68;2.80;;;;;;;0.98;70.63;97687.59;5067678;28;20512;-65
2022/04/18 00:36:52;;;;;;;3.88;2.28;;;;;;;1.00;71.27;97685.56;5049106;28;20048;-65
2022/04/18 00:39:20;;;;;;;4.80;2.67;;;;;;;1.01;70.55;97681.88;5047571;28;20513;-65
2022/04/18 00:41:47;;;;;;;4.70;2.40;;;;;;;1.03;70.82;97685.19;5043610;28;20037;-65
2022/04/18 00:44:14;;;;;;;6.97;2.63;;;;;;;1.11;70.66;97685.09;5065967;28;20041;-65
2022/04/18 00:46:41;;;;;;;5.72;2.60;;;;;;;1.24;69.50;97684.47;5056735;28;20242;-65
2022/04/18 00:49:07;;;;;;;4.43;2.22;;;;;;;1.41;69.11;97677.09;5057351;28;20043;-65
2022/04/18 00:51:34;;;;;;;3.35;1.95;;;;;;;1.49;68.81;97678.84;5061171;28;20041;-65
2022/04/18 00:54:01;;;;;;;5.10;2.17;;;;;;;1.58;67.98;97676.91;5047105;28;20053;-65
2022/04/18 00:56:28;;;;;;;4.10;2.28;;;;;;;1.58;67.82;97673.41;5046864;28;20515;-65
2022/04/18 00:58:54;;;;;;;7.95;2.60;;;;;;;1.46;68.44;97673.03;5050493;28;20048;-65
2022/04/18 01:01:23;;;;;;;4.30;2.50;;;;;;;1.29;69.20;97673.25;5058470;28;20284;-65
2022/04/18 01:03:53;;;;;;;5.10;2.75;;;;;;;1.25;69.53;97667.44;5073046;28;20479;-65
2022/04/18 01:06:20;;;;;;;4.93;2.42;;;;;;;1.27;69.21;97665.44;5048713;28;20454;-65
2022/04/18 01:08:50;;;;;;;3.70;2.15;;;;;;;1.25;68.90;97661.31;5055824;28;20709;-65
2022/04/18 01:11:17;;;;;;;5.47;2.78;;;;;;;1.06;69.85;97654.69;5053380;28;20044;-65
2022/04/18 01:14:01;;;;;;;5.38;2.85;;;;;;;0.93;71.12;97658.81;5050465;28;20275;-65
2022/04/18 01:16:47;;;;;;;3.92;2.40;;;;;;;0.87;70.85;97652.38;5063393;28;20186;-65
2022/04/18 01:19:36;;;;;;;5.78;2.88;;;;;;;0.87;70.64;97660.38;5063507;28;20056;-65
2022/04/18 01:22:12;;;;;;;5.13;2.67;;;;;;;0.80;70.97;97645.28;5045967;28;20045;-65
2022/04/18 01:30:25;;;;;;;6.13;2.50;;;;;;;0.73;71.34;97635.34;5063717;28;20040;-65
2022/04/18 01:32:52;;;;;;;4.40;2.47;;;;;;;0.72;70.89;97636.38;5056949;28;20049;-65
2022/04/18 01:35:19;;;;;;;5.82;2.78;;;;;;;0.58;71.87;97640.66;5066626;28;20086;-65
2022/04/18 01:37:46;;;;;;;5.70;2.80;;;;;;;0.66;71.86;97637.06;5049276;28;20049;-65
2022/04/18 01:40:15;;;;;;;5.97;3.00;;;;;;;0.64;71.47;97634.63;5060405;28;20477;-65
2022/04/18 01:42:42;;;;;;;7.25;3.15;;;;;;;0.58;71.55;97635.31;5052851;28;20036;-65
2022/04/18 01:45:12;;;;;;;3.80;2.60;;;;;;;0.49;71.69;97633.75;5044016;28;20310;-65
2022/04/18 01:47:41;;;;;;;3.78;2.35;;;;;;;0.43;72.38;97645.09;5045334;28;20036;-65
2022/04/18 01:50:08;;;;;;;4.53;2.47;;;;;;;0.54;71.73;97638.53;5057787;28;20357;-65
2022/04/18 01:52:35;;;;;;;5.78;2.50;;;;;;;0.63;71.65;97640.94;5061324;28;20280;-65
2022/04/18 01:55:02;;;;;;;5.75;2.72;;;;;;;0.63;71.83;97643.59;5061622;28;20529;-65
2022/04/18 01:57:28;;;;;;;6.43;3.00;;;;;;;0.66;71.24;97633.59;5055351;28;20044;-65
2022/04/18 01:59:55;;;;;;;5.13;2.80;;;;;;;0.62;70.91;97641.09;5044094;28;20243;-65
2022/04/18 02:02:21;;;;;;;4.97;2.70;;;;;;;0.43;72.36;97634.44;5050803;28;20049;-65
2022/04/18 02:04:48;;;;;;;6.60;2.78;;;;;;;0.25;72.80;97630.28;5060331;28;20195;-65
2022/04/18 02:07:15;;;;;;;4.85;2.80;;;;;;;0.27;72.82;97625.63;5043234;28;20052;-65
2022/04/18 02:09:48;;;;;;;5.13;2.85;;;;;;;0.18;73.78;97626.69;5050425;28;20557;-65
2022/04/18 02:12:16;;;;;;;6.15;2.60;;;;;;;0.30;72.96;97619.94;5060352;28;20052;-65
2022/04/18 02:14:52;;;;;;;7.40;3.30;;;;;;;0.40;72.46;97618.84;5063634;28;20041;-65
2022/04/18 02:17:21;;;;;;;4.90;2.85;;;;;;;0.35;72.48;97620.22;5053783;28;20051;-65
2022/04/18 02:19:48;;;;;;;4.10;2.40;;;;;;;0.38;72.50;97619.84;5046081;28;20072;-65
2022/04/18 02:22:15;;;;;;;4.93;3.00;;;;;;;0.31;73.08;97613.59;5047926;28;20071;-65
2022/04/18 02:24:41;;;;;;;4.97;2.90;;;;;;;0.25;73.26;97612.47;5048907;28;20041;-65
2022/04/18 02:27:09;;;;;;;5.00;2.95;;;;;;;0.33;72.07;97621.41;5071007;28;20048;-65
2022/04/18 02:29:36;;;;;;;5.57;2.78;;;;;;;0.40;72.12;97608.19;5060613;28;20080;-65
2022/04/18 02:34:49;;;;;;;7.35;2.92;;;;;;;0.12;73.12;97609.59;5065448;28;20458;-65
2022/04/18 02:37:15;;;;;;;6.50;3.47;;;;;;;0.11;73.20;97605.28;5051073;28;20476;-65
2022/04/18 02:39:42;;;;;;;5.30;3.40;;;;;;;0.17;73.37;97609.88;5044409;28;20051;-65
2022/04/18 02:42:08;;;;;;;9.48;3.33;;;;;;;0.16;73.54;97604.72;5045360;28;20048;-65
2022/04/18 02:44:37;;;;;;;6.20;3.50;;;;;;;0.18;73.53;97602.72;5044014;28;20069;-65
2022/04/18 02:47:04;;;;;;;5.90;3.35;;;;;;;-0.02;74.14;97608.53;5043560;28;20049;-65
2022/04/18 02:49:31;;;;;;;7.47;3.15;;;;;;;-0.02;74.59;97608.53;5045627;28;20049;-65
2022/04/18 02:51:58;;;;;;;5.78;3.17;;;;;;;0.05;74.04;97604.16;5060058;28;20067;-65
2022/04/18 02:54:24;;;;;;;6.28;3.22;;;;;;;-0.01;73.98;97605.69;5063347;28;20045;-65
2022/04/18 02:56:51;;;;;;;7.05;3.30;;;;;;;-0.05;74.61;97607.06;5060909;28;20040;-65
2022/04/18 02:59:17;;;;;;;6.60;3.10;;;;;;;-0.13;74.05;97596.47;5058379;28;20045;-65
2022/04/18 03:01:44;;;;;;;4.85;3.00;;;;;;;-0.30;75.17;97593.91;5063307;28;20139;-65
2022/04/18 03:04:11;;;;;;;8.00;3.60;;;;;;;-0.41;75.49;97597.81;5043410;28;20184;-65
2022/04/18 03:06:37;;;;;;;6.00;3.47;;;;;;;-0.58;76.12;97590.94;5044405;28;20056;-65
2022/04/18 03:09:06;;;;;;;6.72;3.42;;;;;;;-0.48;75.87;97586.19;5050854;28;20045;-65
2022/04/18 03:11:33;;;;;;;6.25;3.33;;;;;;;-0.41;75.91;97581.84;5069402;28;20442;-65
2022/04/18 03:14:00;;;;;;;6.03;2.83;;;;;;;-0.27;74.61;97584.75;5064069;28;20072;-65
2022/04/18 03:16:34;;;;;;;6.53;3.58;;;;;;;-0.29;75.03;97584.91;5050721;28;20061;-65
2022/04/18 03:19:01;;;;;;;5.40;3.08;;;;;;;-0.32;75.04;97573.81;5068434;28;20051;-65
2022/04/18 03:21:29;;;;;;;5.18;2.90;;;;;;;-0.25;74.91;97576.59;5049417;28;21072;-66
2022/04/18 03:23:58;;;;;;;7.90;2.67;;;;;;;-0.17;74.34;97574.72;5049695;28;20047;-65
2022/04/18 03:26:42;;;;;;;7.80;3.10;;;;;;;-0.17;74.80;97574.72;5057482;28;20051;-65
2022/04/18 03:29:13;;;;;;;7.30;3.13;;;;;;;-0.11;74.22;97575.81;5050208;28;20057;-65
2022/04/18 03:31:41;;;;;;;6.47;3.00;;;;;;;-0.04;73.43;97579.41;5064506;28;20345;-65
2022/04/18 03:34:09;;;;;;;5.43;3.05;;;;;;;0.02;73.77;97572.56;5062561;28;20044;-65
2022/04/18 03:42:09;;;;;;;5.95;2.80;;;;;;;-0.14;74.09;97566.34;5053697;28;20049;-65
2022/04/18 03:44:54;;;;;;;5.40;2.70;;;;;;;-0.34;74.88;97568.66;5059127;28;20041;-65
2022/04/18 03:47:20;;;;;;;7.63;3.35;;;;;;;-0.34;74.90;97567.84;5050261;28;20057;-65
2022/04/18 03:49:47;;;;;;;7.10;3.28;;;;;;;-0.20;74.39;97568.91;5060134;28;20043;-65
2022/04/18 03:52:13;;;;;;;7.03;3.13;;;;;;;-0.34;75.03;97559.88;5060384;28;20136;-65
2022/04/18 03:54:40;;;;;;;6.82;3.17;;;;;;;-0.43;75.15;97546.63;5049713;28;20037;-65
2022/04/18 03:57:10;;;;;;;5.13;3.25;;;;;;;-0.69;76.29;97545.13;5066343;28;20055;-65
2022/04/18 03:59:50;;;;;;;5.68;3.42;;;;;;;-0.76;77.70;97545.97;5057057;28;20055;-65
2022/04/18 04:02:19;;;;;;;5.45;3.35;;;;;;;-0.78;76.78;97546.16;5059545;28;20097;-65
2022/04/18 04:04:50;;;;;;;7.68;3.03;;;;;;;-0.79;77.37;97553.31;5061180;28;20196;-65
2022/04/18 04:07:17;;;;;;;7.47;3.95;;;;;;;-0.79;76.86;97544.50;5063103;28;20048;-65
2022/04/18 04:09:48;;;;;;;8.02;3.92;;;;;;;-0.81;77.12;97551.84;5070318;28;20443;-65
2022/04/18 04:12:23;;;;;;;7.07;3.22;;;;;;;-0.85;77.90;97555.84;5051305;28;20044;-65
2022/04/18 04:15:12;;;;;;;7.10;3.17;;;;;;;-0.94;77.68;97550.56;5055683;28;20531;-65
2022/04/18 04:17:47;;;;;;;6.07;3.45;;;;;;;-0.88;76.98;97550.88;5065877;28;20053;-65
2022/04/18 04:20:19;;;;;;;5.53;3.15;;;;;;;-0.93;77.07;97554.88;5062869;28;20056;-65
2022/04/18 04:22:49;;;;;;;5.70;3.17;;;;;;;-1.12;77.91;97552.63;5057100;28;20048;-65
2022/04/18 04:25:34;;;;;;;5.78;3.08;;;;;;;-1.03;77.55;97554.28;5059011;28;20558;-68
2022/04/18 04:28:01;;;;;;;7.75;4.10;;;;;;;-1.28;78.59;97549.06;5050043;28;20409;-65
2022/04/18 04:30:28;;;;;;;5.28;3.17;;;;;;;-1.55;79.88;97555.59;5045522;28;20099;-65
2022/04/18 04:32:59;;;;;;;7.38;3.58;;;;;;;-1.42;80.09;97561.22;5052873;28;20435;-65
2022/04/18 04:35:27;;;;;;;5.03;3.08;;;;;;;-1.31;79.60;97550.22;5055250;28;20049;-65
2022/04/18 04:38:09;;;;;;;;;;;;;;;-0.99;78.23;97557.41;5045309;28;20095;-65
2022/04/18 04:40:53;;;;;;;5.82;3.15;;;;;;;-0.97;77.76;97556.22;5057546;28;19920;-65
2022/04/18 04:43:32;;;;;;;5.88;2.80;;;;;;;-0.85;77.15;97548.69;5044768;28;20130;-65
2022/04/18 04:46:02;;;;;;;9.25;3.67;;;;;;;-0.67;76.72;97540.44;5051664;28;20064;-69
2022/04/18 04:48:33;;;;;;;5.68;3.33;;;;;;;-0.51;76.41;97545.84;5053666;28;20054;-65
2022/04/18 04:51:07;;;;;;;7.10;3.17;;;;;;;-0.47;75.86;97541.81;5046532;28;20419;-65
2022/04/18 04:53:34;;;;;;;5.38;3.30;;;;;;;-0.42;75.52;97539.44;5055016;28;20056;-65
2022/04/18 04:56:01;;;;;;;6.80;3.10;;;;;;;-0.48;76.09;97542.84;5054414;28;20099;-65
2022/04/18 04:58:30;;;;;;;7.00;3.97;;;;;;;-0.45;76.05;97547.78;5044482;28;20394;-65
2022/04/18 05:01:00;;;;;;;5.95;3.50;;;;;;;-0.23;74.97;97548.78;5058445;28;20114;-65
2022/04/18 05:03:46;;;;;;;6.75;3.88;;;;;;;-0.09;74.51;97543.69;5051278;28;20740;-64
2022/04/18 05:06:14;;;;;;;8.65;4.47;;;;;;;0.01;74.04;97544.28;5052474;28;20519;-65
2022/04/18 05:08:43;;;;;;;6.18;3.97;;;;;;;0.06;73.88;97541.06;5049997;28;20053;-65
2022/04/18 05:11:09;;;;;;;7.25;3.70;;;;;;;-0.01;74.42;97543.63;5050784;28;20401;-65
2022/04/18 05:13:47;;;;;;;7.72;4.10;;;;;;;0.11;74.29;97539.53;5051989;28;20056;-65
2022/04/18 05:16:16;;;;;;;7.20;3.90;;;;;;;-0.14;74.74;97547.72;5050869;28;20044;-65
2022/04/18 05:18:57;;;;;;;9.30;3.53;;;;;;;0.09;74.61;97554.88;5065019;28;20055;-65
2022/04/18 05:21:24;;;;;;;5.50;3.30;;;;;;;0.11;74.78;97550.16;5050194;28;20295;-65
2022/04/18 05:23:54;;;;;;;6.60;3.83;;;;;;;-0.02;74.83;97550.81;5052341;28;20056;-65
2022/04/18 05:26:20;;;;;;;7.43;4.10;;;;;;;0.13;74.59;97547.34;5062812;28;20051;-65
2022/04/18 05:28:47;;;;;;;7.47;4.53;;;;;;;0.22;74.97;97535.59;5054780;28;20135;-65
2022/04/18 05:31:19;;;;;;;6.93;4.13;;;;;;;0.44;74.10;97546.34;5060257;28;20130;-65
2022/04/18 05:33:47;;;;;;;6.30;3.72;;;;;;;0.63;73.52;97546.84;5053742;28;20480;-65
2022/04/18 05:36:23;;;;;;;7.18;3.95;;;;;;;0.80;74.05;97550.13;5055107;28;20071;-65
2022/04/18 05:38:50;;;;;;;7.53;3.85;;;;;;;0.88;73.78;97543.88;5050021;28;20048;-65
2022/04/18 05:41:22;;;;;;;6.55;4.28;;;;;;;0.86;73.00;97541.41;5058288;28;20056;-65
2022/04/18 05:43:50;;;;;;;6.15;3.35;;;;;;;1.18;72.47;97541.16;5054678;28;20500;-65
2022/04/18 05:46:22;;;;;;;5.70;3.33;;;;;;;1.29;70.72;97538.00;5051991;28;20060;-65
2022/04/18 05:48:49;;;;;;;6.07;3.42;;;;;;;1.38;71.05;97548.56;5057812;28;20119;-65
2022/04/18 05:51:15;;;;;;;5.70;3.42;;;;;;;1.58;71.24;97547.97;5053690;28;20057;-65
2022/04/18 05:53:43;;;;;;;6.78;3.25;;;;;;;1.70;70.60;97554.47;5070282;28;20131;-65
2022/04/18 05:56:12;;;;;;;6.85;4.10;;;;;;;1.72;70.29;97554.25;5042301;28;20048;-65
2022/04/18 05:58:59;;;;;;;5.57;3.33;;;;;;;1.82;70.47;97552.09;5050566;28;20194;-65
2022/04/18 06:01:45;;;;;;;6.07;3.15;;;;;;;1.97;71.33;97552.03;5058976;28;20116;-65
2022/04/18 06:04:22;;;;;;;5.55;3.22;;;;;;;2.28;69.37;97545.50;5055938;28;20531;-65
2022/04/18 06:07:02;;;;;;;9.02;3.72;;;;;;;2.46;68.94;97547.69;5056554;28;20055;-65
2022/04/18 06:09:28;;;;;;;6.25;3.53;;;;;;;2.70;69.32;97542.88;5058640;28;20045;-66
2022/04/18 06:11:55;;;;;;;6.05;3.20;;;;;;;2.78;69.14;97543.75;5042644;28;20575;-65
2022/04/18 06:14:26;;;;;;;5.60;2.78;;;;;;;2.88;67.36;97536.22;5045738;28;20352;-65
2022/04/18 06:16:52;;;;;;;5.55;3.00;;;;;;;2.99;66.78;97537.50;5060407;28;20367;-65
2022/04/18 06:19:21;;;;;;;5.88;3.45;;;;;;;3.17;67.98;97534.25;5052009;28;20131;-65
2022/04/18 06:21:48;;;;;;;5.28;3.30;;;;;;;3.43;66.88;97543.38;5040929;28;20076;-65
2022/04/18 06:24:16;;;;;;;7.63;4.00;;;;;;;3.62;63.75;97540.97;5054903;28;20131;-65
2022/04/18 06:27:05;;;;;;;13.55;5.93;;;;;;;3.90;63.66;97542.66;5047999;28;20052;-65
2022/04/18 06:29:37;;;;;;;10.07;4.90;;;;;;;4.08;63.38;97543.91;5051846;28;20067;-65
2022/04/18 06:32:05;;;;;;;13.90;5.40;;;;;;;4.19;62.20;97540.63;5058412;28;20306;-64
2022/04/18 06:34:32;;;;;;;11.13;5.22;;;;;;;4.32;62.09;97533.59;5057208;28;20037;-65
2022/04/18 06:37:12;;;;;;;7.18;3.78;;;;;;;4.46;60.67;97534.41;5048473;28;20048;-65
2022/04/18 06:39:46;;;;;;;6.97;2.85;;;;;;;4.73;57.47;97529.84;5048985;28;20531;-65
2022/04/18 06:42:17;;;;;;;5.75;2.80;;;;;;;5.11;54.93;97530.09;5058548;28;20045;-65
2022/04/18 06:44:48;;;;;;;9.18;4.63;;;;;;;5.63;54.55;97537.31;5051906;28;20047;-65
2022/04/18 06:47:15;;;;;;;6.82;3.33;;;;;;;5.89;52.14;97535.50;5048884;28;20507;-65
2022/04/18 06:50:11;;;;;;;4.93;2.83;;;;;;;5.94;52.51;97530.28;5057913;28;20041;-65
2022/04/18 06:53:13;;;;;;;5.10;2.33;;;;;;;5.98;51.43;97535.00;5059771;28;20206;-65
2022/04/18 06:58:44;;;;;;;4.47;2.85;;;;;;;6.23;52.62;97544.16;5044685;28;20045;-65
2022/04/18 07:01:10;;;;;;;6.50;2.78;;;;;;;6.32;51.97;97540.16;5058287;28;20059;-66
2022/04/18 07:03:38;;;;;;;5.93;2.90;;;;;;;6.37;52.22;97529.53;5061289;28;20423;-66
2022/04/18 07:06:04;;;;;;;4.22;2.53;;;;;;;6.48;51.99;97530.69;5047205;28;20037;-66
2022/04/18 07:08:31;;;;;;;5.47;2.75;;;;;;;6.52;51.80;97532.94;5052438;28;20053;-65
2022/04/18 07:11:13;;;;;;;4.68;2.75;;;;;;;6.67;52.19;97536.09;5049076;28;20049;-65
2022/04/18 07:13:40;;;;;;;4.68;2.70;;;;;;;6.88;51.53;97531.31;5049650;28;20047;-65
2022/04/18 07:16:07;;;;;;;6.53;2.45;;;;;;;7.05;51.48;97525.34;5054712;28;20512;-65
2022/04/18 07:18:35;;;;;;;5.60;2.38;;;;;;;7.14;51.66;97522.13;5047333;28;20033;-66
2022/04/18 07:21:04;;;;;;;6.20;2.58;;;;;;;7.24;50.85;97520.75;5053490;28;20125;-65
2022/04/18 07:23:31;;;;;;;7.95;2.63;;;;;;;7.24;51.38;97521.59;5054823;28;20040;-65
2022/04/18 07:25:58;;;;;;;5.85;3.03;;;;;;;7.28;51.10;97521.94;5054146;28;20075;-65
2022/04/18 07:28:32;;;;;;;5.68;3.05;;;;;;;7.29;50.41;97515.50;5059602;28;20343;-66
2022/04/18 07:31:00;;;;;;;6.15;2.88;;;;;;;7.45;50.49;97515.94;5080331;28;20047;-66
2022/04/18 07:33:27;;;;;;;4.95;3.00;;;;;;;7.69;50.12;97519.53;5054921;28;20099;-65
2022/04/18 07:35:54;;;;;;;5.15;2.53;;;;;;;7.82;49.52;97515.84;5043806;28;20045;-65
2022/04/18 07:41:42;;;;;;;4.68;2.75;;;;;;;7.92;49.21;97521.47;4979869;28;20042;-65
2022/04/18 07:44:09;;;;;;;4.90;2.88;;;;;;;8.07;49.46;97522.91;4981784;28;20153;-65
2022/04/18 07:46:36;;;;;;;5.18;3.20;;;;;;;8.16;49.57;97516.13;5018775;28;20080;-66
2022/04/18 07:49:10;;;;;;;7.80;3.08;;;;;;;8.26;49.13;97523.63;5055455;28;20423;-65
2022/04/18 07:51:42;;;;;;;4.82;2.80;;;;;;;8.35;49.07;97520.59;5044793;28;20049;-66
2022/04/18 07:54:20;;;;;;;5.32;2.92;;;;;;;8.41;49.11;97527.75;5055965;28;20500;-66
2022/04/18 07:56:47;;;;;;;6.70;3.70;;;;;;;8.50;48.79;97536.31;5053139;28;20560;-66
2022/04/18 07:59:16;;;;;;;6.07;2.90;;;;;;;8.59;48.42;97530.38;5059810;28;20048;-65
2022/04/18 08:01:44;;;;;;;5.13;3.05;;;;;;;8.62;48.67;97530.97;5052750;28;20066;-65
2022/04/18 08:04:17;;;;;;;7.05;2.80;;;;;;;8.69;48.32;97527.06;5054593;28;20164;-66
2022/04/18 08:06:44;;;;;;;5.15;2.90;;;;;;;8.66;48.45;97538.34;5057263;28;20102;-65
2022/04/18 08:09:18;;;;;;;6.82;3.20;;;;;;;8.85;47.62;97522.03;5058054;28;20056;-66
2022/04/18 08:11:45;;;;;;;5.63;3.20;;;;;;;8.94;46.85;97533.25;5051045;28;20139;-66
2022/04/18 08:14:16;;;;;;;7.40;3.35;;;;;;;8.96;46.76;97533.88;5054100;28;20052;-66
2022/04/18 08:16:47;;;;;;;5.40;3.10;;;;;;;8.88;46.67;97531.53;5048558;28;20048;-65
2022/04/18 08:19:28;;;;;;;6.93;3.42;;;;;;;9.05;46.78;97534.31;5058380;28;20044;-66
2022/04/18 08:21:56;;;;;;;7.93;3.53;;;;;;;9.14;46.28;97532.88;5054174;28;20117;-66
2022/04/18 08:24:23;;;;;;;5.93;3.38;;;;;;;9.29;46.18;97539.66;5059323;28;20036;-65
2022/04/18 08:27:12;;;;;;;7.13;3.30;;;;;;;9.40;46.71;97538.78;5051572;28;20053;-65
2022/04/18 08:29:51;;;;;;;5.15;3.22;;;;;;;9.49;46.94;97534.66;5048418;28;20467;-66
2022/04/18 08:32:23;;;;;;;5.68;3.30;;;;;;;9.40;46.10;97538.78;5047100;28;20048;-66
2022/04/18 08:34:51;;;;;;;6.22;3.17;;;;;;;9.42;46.94;97535.84;5056443;28;20464;-66
2022/04/18 08:37:19;;;;;;;7.22;3.05;;;;;;;9.31;46.61;97542.94;5059795;28;20052;-66
2022/04/18 08:40:09;;;;;;;5.43;2.90;;;;;;;9.42;47.19;97539.38;5032821;28;20096;-66
2022/04/18 08:42:38;;;;;;;6.50;3.15;;;;;;;9.72;45.96;97542.91;5057273;28;20052;-66
2022/04/18 08:45:07;;;;;;;7.10;3.60;;;;;;;9.71;46.07;97535.84;5057585;28;20048;-66
2022/04/18 08:53:12;;;;;;;6.97;3.70;;;;;;;9.85;45.90;97541.78;5062338;28;20045;-66
2022/04/18 08:55:42;;;;;;;5.25;3.17;;;;;;;9.92;45.46;97539.75;5055536;28;20037;-66
2022/04/18 08:58:41;;;;;;;;;;;;;;;10.08;45.13;97538.13;5035199;28;20064;-66
2022/04/18 09:01:12;;;;;;;6.15;3.13;;;;;;;10.18;43.83;97537.50;5060450;28;19926;-66
2022/04/18 09:03:45;;;;;;;6.10;3.10;;;;;;;10.23;44.11;97531.34;5067464;28;20531;-66
2022/04/18 09:06:13;;;;;;;6.43;3.33;;;;;;;10.38;43.31;97537.00;5062853;28;20132;-66
2022/04/18 09:08:52;;;;;;;4.35;2.97;;;;;;;10.46;42.83;97529.56;5045679;28;20040;-66
2022/04/18 09:11:40;;;;;;;6.78;2.78;;;;;;;10.30;42.76;97536.56;5044840;28;20044;-66
2022/04/18 09:14:15;;;;;;;5.72;3.10;;;;;;;10.31;42.94;97528.22;5046210;28;20500;-66
2022/04/18 09:16:46;;;;;;;5.70;3.38;;;;;;;10.45;42.79;97526.03;5042152;28;20110;-65
2022/04/18 09:19:33;;;;;;;6.63;3.25;;;;;;;10.56;41.83;97528.88;5063852;28;20048;-66
2022/04/18 09:22:02;;;;;;;5.75;2.83;;;;;;;10.60;41.31;97522.72;5061754;28;20087;-66
2022/04/18 09:24:37;;;;;;;5.47;2.53;;;;;;;10.74;41.60;97516.97;5063274;28;20052;-66
2022/04/18 09:27:23;;;;;;;8.60;3.13;;;;;;;10.52;42.12;97515.03;5071136;28;20289;-66
2022/04/18 09:30:10;;;;;;;8.10;3.83;;;;;;;10.58;40.68;97518.63;5044860;28;20053;-66
2022/04/18 09:33:06;;;;;;;8.80;3.35;;;;;;;10.65;40.68;97514.69;5048528;28;20049;-66
2022/04/18 09:35:39;;;;;;;5.88;2.90;;;;;;;10.61;40.84;97520.84;5044334;28;20131;-66
2022/04/18 09:38:11;;;;;;;5.15;3.00;;;;;;;10.66;41.15;97516.31;5056268;28;20519;-66
2022/04/18 09:41:04;;;;;;;5.07;2.63;;;;;;;10.81;41.79;97520.31;5031375;28;20064;-66
2022/04/18 09:43:38;;;;;;;6.55;2.88;;;;;;;10.89;40.81;97513.66;5045646;28;20587;-66
2022/04/18 09:46:06;;;;;;;5.00;2.85;;;;;;;10.83;40.47;97517.38;5046700;28;20476;-66
2022/04/18 09:48:36;;;;;;;5.53;3.22;;;;;;;10.96;41.12;97521.59;5050503;28;20135;-66
2022/04/18 09:51:09;;;;;;;6.90;3.53;;;;;;;10.78;40.03;97510.81;5059331;28;20095;-66
2022/04/18 09:53:58;;;;;;;6.10;3.00;;;;;;;10.73;40.92;97508.00;5054265;28;20056;-66
2022/04/18 09:56:27;;;;;;;7.43;3.35;;;;;;;10.98;40.00;97520.25;5045498;28;20385;-66
2022/04/18 09:58:55;;;;;;;4.60;2.55;;;;;;;11.04;40.34;97504.91;5047479;28;20044;-66
2022/04/18 10:01:33;;;;;;;5.68;2.45;;;;;;;11.19;39.64;97510.50;5048866;28;20044;-66
2022/04/18 10:04:01;;;;;;;4.80;2.95;;;;;;;11.33;39.28;97502.00;5061883;28;20116;-66
2022/04/18 10:06:28;;;;;;;4.72;2.47;;;;;;;11.43;39.69;97499.38;5048225;28;20083;-66
2022/04/18 10:08:55;;;;;;;4.55;2.60;;;;;;;11.47;37.92;97502.44;5046319;28;20103;-66
2022/04/18 10:11:22;;;;;;;5.88;2.78;;;;;;;11.57;37.70;97502.53;5045639;28;20049;-66
2022/04/18 10:13:49;;;;;;;4.90;2.28;;;;;;;11.50;36.94;97490.25;5055384;28;20531;-66
2022/04/18 10:16:18;;;;;;;4.70;2.80;;;;;;;11.36;37.75;97485.22;5046389;28;20047;-66
2022/04/18 10:18:52;;;;;;;4.72;2.90;;;;;;;11.53;39.29;97485.13;5046061;28;20473;-66
2022/04/18 10:21:31;;;;;;;6.78;3.20;;;;;;;11.65;38.79;97486.88;5045813;28;20209;-66
2022/04/18 10:24:19;;;;;;;5.15;2.67;;;;;;;11.78;38.06;97485.63;5050444;28;20036;-66
2022/04/18 10:27:05;;;;;;;6.28;3.10;;;;;;;11.83;37.71;97481.06;5066893;28;20400;-66
2022/04/18 10:29:39;;;;;;;6.03;2.80;;;;;;;11.91;38.13;97471.63;5058541;28;20037;-66
2022/04/18 10:32:07;;;;;;;5.10;2.60;;;;;;;12.14;38.16;97480.56;5048035;28;20049;-66
2022/04/18 10:34:35;;;;;;;6.10;2.80;;;;;;;12.42;37.78;97484.00;5052727;28;20045;-66
2022/04/18 10:37:08;;;;;;;4.53;2.60;;;;;;;12.35;36.99;97473.38;5048609;28;20040;-66
2022/04/18 10:39:38;;;;;;;5.93;3.03;;;;;;;12.27;37.28;97464.91;5060867;28;20041;-66
2022/04/18 10:42:22;;;;;;;5.10;2.83;;;;;;;12.27;36.92;97462.97;5045184;28;20055;-66
2022/04/18 10:45:02;;;;;;;6.03;2.95;;;;;;;12.31;37.48;97458.66;5047002;28;20052;-66
2022/04/18 10:48:08;;;;;;;6.43;2.83;;;;;;;12.53;38.02;97463.16;5057151;28;20059;-67
2022/04/18 10:50:46;;;;;;;6.03;2.88;;;;;;;12.60;37.04;97460.19;5058767;28;20040;-66
2022/04/18 10:53:14;;;;;;;5.45;2.70;;;;;;;12.41;37.30;97457.09;5052778;28;20060;-66
2022/04/18 10:55:53;;;;;;;5.30;2.88;;;;;;;12.39;37.33;97460.09;5046316;28;20550;-66
2022/04/18 10:58:24;;;;;;;5.60;3.25;;;;;;;12.36;37.08;97450.56;5062856;28;20109;-66
2022/04/18 11:00:52;;;;;;;5.53;2.67;;;;;;;12.43;36.43;97449.53;5062104;28;20048;-66
2022/04/18 11:03:57;;;;;;;4.47;2.88;;;;;;;12.54;36.37;97453.13;5065230;28;20375;-66
2022/04/18 11:06:24;;;;;;;7.20;2.60;;;;;;;12.57;35.58;97456.13;5022735;28;20528;-66
2022/04/18 11:09:03;;;;;;;4.78;2.33;;;;;;;12.69;35.73;97446.94;5056854;28;20045;-66
2022/04/18 11:11:34;;;;;;;5.03;2.50;;;;;;;12.67;36.40;97444.50;5044903;28;20056;-66
2022/04/18 11:14:12;;;;;;;6.55;3.55;;;;;;;12.67;36.17;97441.78;5044414;28;20095;-67
2022/04/18 11:16:41;;;;;;;4.45;2.53;;;;;;;12.87;36.15;97442.97;5061724;28;20110;-67
2022/04/18 11:19:16;;;;;;;5.40;2.45;;;;;;;13.02;35.47;97431.34;5050107;28;20049;-67
2022/04/18 11:21:55;;;;;;;3.63;2.38;;;;;;;13.13;36.25;97429.47;5044522;28;20401;-65
2022/04/18 11:24:37;;;;;;;4.75;2.30;;;;;;;13.40;35.40;97428.44;5045549;28;20094;-66
2022/04/18 11:27:07;;;;;;;;;;;;;;;13.41;34.58;97427.34;5075910;28;20074;-68
2022/04/18 11:29:34;;;;;;;5.47;2.63;;;;;;;13.34;34.74;97422.16;5067130;28;19921;-66
2022/04/18 11:32:01;;;;;;;4.80;2.80;;;;;;;13.29;34.94;97422.16;5054013;28;20119;-65
2022/04/18 11:34:30;;;;;;;5.13;2.45;;;;;;;13.32;35.32;97415.38;5054736;28;20476;-65
2022/04/18 11:36:58;;;;;;;5.38;2.40;;;;;;;13.06;35.20;97418.03;5059869;28;20044;-66
2022/04/18 11:39:48;;;;;;;4.57;2.53;;;;;;;13.16;35.34;97414.53;5068835;28;20563;-66
2022/04/18 11:42:16;;;;;;;5.50;2.55;;;;;;;13.34;35.14;97416.72;5048865;28;20049;-66
2022/04/18 11:44:44;;;;;;;4.90;2.33;;;;;;;13.40;34.66;97410.22;5049121;28;20404;-66
2022/04/18 11:47:13;;;;;;;5.63;2.67;;;;;;;13.40;34.81;97404.78;5048870;28;20090;-66
2022/04/18 11:49:41;;;;;;;5.65;2.47;;;;;;;13.63;34.32;97408.09;5051570;28;20129;-66
2022/04/18 11:52:18;;;;;;;4.82;2.45;;;;;;;13.74;34.33;97405.38;5047851;28;20055;-66
2022/04/18 11:54:54;;;;;;;5.53;2.70;;;;;;;13.82;33.89;97404.03;5048509;28;20052;-66
2022/04/18 11:57:20;;;;;;;4.90;2.15;;;;;;;13.72;34.03;97402.94;5047839;28;20049;-65
2022/04/18 11:59:47;;;;;;;4.63;2.60;;;;;;;13.84;33.18;97402.66;5050485;28;20512;-66
2022/04/18 12:07:44;;;;;;;4.57;2.25;;;;;;;14.02;33.09;97386.88;5046584;28;20041;-65
2022/04/18 12:10:25;;;;;;;4.53;2.30;;;;;;;14.10;32.36;97385.47;5064508;28;20048;-66
2022/04/18 12:12:52;;;;;;;5.47;2.38;;;;;;;14.31;33.14;97381.63;5066352;28;20090;-66
2022/04/18 12:15:25;;;;;;;4.75;2.45;;;;;;;14.35;32.38;97378.34;5066137;28;20076;-66
2022/04/18 12:17:53;;;;;;;5.97;2.63;;;;;;;14.50;32.71;97367.44;5057695;28;20052;-65
2022/04/18 12:20:30;;;;;;;5.45;2.40;;;;;;;14.54;32.85;97370.41;5051170;28;20487;-65
2022/04/18 12:22:58;;;;;;;4.68;2.30;;;;;;;14.73;33.00;97365.16;5066216;28;20396;-65
2022/04/18 12:25:32;;;;;;;5.32;2.40;;;;;;;14.65;32.70;97369.28;5066757;28;20033;-65
2022/04/18 12:28:05;;;;;;;6.18;2.50;;;;;;;14.63;32.72;97359.75;5066316;28;20040;-66
2022/04/18 12:30:32;;;;;;;6.00;2.45;;;;;;;14.51;32.75;97363.59;5055443;28;20620;-66